CYYU

Kapuskasing Airport

Kapuskasing, Ontario, Canada
METAR CYYU 172100Z 19009KT 15SM OVC059 M14/M18 A3005 RMK SC8 SLP206
Observed Flight Rules
Dec-17 @ 21:00 UTC (33 minutes ago) Visual Flight Rules
Wind Visibility Clouds
190° at 9 knots 15 miles
  • Overcast at 5,900' AGL
Temperatures Readings
Current -14°C / 7°F
Dewpoint -18°C / -0°F
Humidity 72%
Altimeter 30.05" Hg
Pressure 1020.6 hPa
Elevation 227
METAR CYYU 172100Z 19009KT 15SM OVC059 M14/M18 A3005 RMK SC8 SLP206
Observed Flight Rules
Dec-17 @ 21:00 UTC
(33 minutes ago)
VFR
Wind Visibility
190° at 9 knots 15 miles
Clouds
  • Overcast at 5,900' AGL
Temperature Dewpoint
-14°C / 7°F -18°C / -0°F
Humidity Altimeter Pressure
72% 30.05" Hg 1020.6 hPa